Time;durP1;ratioP1;P1;durP2;ratioP2;P2;SDS_P1;SDS_P2;PMS_P1;PMS_P2;Temp;Humidity;BMP_temperature;BMP_pressure;BME280_temperature;BME280_humidity;BME280_pressure;Samples;Min_cycle;Max_cycle;Signal;HPM_P1;HPM_P2
2023/08/15 00:02:26;;;;;;;8.43;4.15;;;;;;;;;;6284313;28;20299;-68
2023/08/15 00:05:31;;;;;;;7.93;3.72;;;;;;;;;;6283709;28;20471;-69
2023/08/15 00:08:37;;;;;;;7.07;4.13;;;;;;;;;;6283920;28;20574;-69
2023/08/15 00:11:41;;;;;;;4.28;3.72;;;;;;;;;;6285673;28;20314;-68
2023/08/15 00:14:45;;;;;;;7.97;4.07;;;;;;;;;;6289137;28;20294;-69
2023/08/15 00:17:50;;;;;;;7.57;4.07;;;;;;;;;;6289026;28;20292;-70
2023/08/15 00:20:54;;;;;;;5.25;3.80;;;;;;;;;;6289248;28;20478;-69
2023/08/15 00:23:58;;;;;;;6.45;4.18;;;;;;;;;;6288213;28;20463;-69
2023/08/15 00:27:02;;;;;;;8.23;4.25;;;;;;;;;;6288531;28;20291;-69
2023/08/15 00:30:07;;;;;;;5.68;4.25;;;;;;;;;;6286395;28;20533;-69
2023/08/15 00:33:12;;;;;;;7.15;4.45;;;;;;;;;;6287328;28;20487;-69
2023/08/15 00:36:15;;;;;;;8.65;4.25;;;;;;;;;;6288402;28;20340;-69
2023/08/15 00:39:19;;;;;;;9.52;4.07;;;;;;;;;;6287919;28;20667;-69
2023/08/15 00:42:23;;;;;;;6.97;4.07;;;;;;;;;;6286549;28;20287;-69
2023/08/15 00:45:27;;;;;;;6.40;4.13;;;;;;;;;;6286365;28;20291;-69
2023/08/15 00:48:33;;;;;;;9.57;4.88;;;;;;;;;;6286797;28;20294;-69
2023/08/15 00:51:37;;;;;;;9.25;4.20;;;;;;;;;;6287912;28;20448;-69
2023/08/15 00:54:43;;;;;;;6.13;4.35;;;;;;;;;;6287515;28;20354;-69
2023/08/15 00:57:46;;;;;;;6.65;4.38;;;;;;;;;;6286387;28;20271;-69
2023/08/15 01:00:52;;;;;;;7.75;4.28;;;;;;;;;;6287522;28;20302;-68
2023/08/15 01:03:57;;;;;;;6.50;4.38;;;;;;;;;;6287228;28;20387;-71
2023/08/15 01:07:01;;;;;;;11.18;4.45;;;;;;;;;;6287960;28;20291;-69
2023/08/15 01:10:06;;;;;;;8.20;4.57;;;;;;;;;;6286048;28;20324;-69
2023/08/15 01:13:15;;;;;;;8.10;4.93;;;;;;;;;;6285779;28;20290;-68
2023/08/15 01:16:24;;;;;;;6.93;4.63;;;;;;;;;;6286007;28;20295;-67
2023/08/15 01:19:36;;;;;;;9.30;4.60;;;;;;;;;;6287206;28;20303;-68
2023/08/15 01:22:44;;;;;;;9.45;5.43;;;;;;;;;;6286579;28;20295;-69
2023/08/15 01:25:50;;;;;;;6.65;4.85;;;;;;;;;;6287351;28;20291;-68
2023/08/15 01:28:54;;;;;;;4.82;4.38;;;;;;;;;;6285007;28;20291;-68
2023/08/15 01:32:06;;;;;;;9.85;4.88;;;;;;;;;;6286838;28;20315;-69
2023/08/15 01:35:16;;;;;;;5.47;4.53;;;;;;;;;;6317868;28;20299;-69
2023/08/15 01:38:26;;;;;;;9.85;4.80;;;;;;;;;;6286577;28;20296;-69
2023/08/15 01:41:33;;;;;;;7.82;4.90;;;;;;;;;;6286141;28;20295;-69
2023/08/15 01:44:37;;;;;;;6.22;4.78;;;;;;;;;;6285296;28;20299;-69
2023/08/15 01:47:43;;;;;;;6.63;4.63;;;;;;;;;;6286374;28;20299;-69
2023/08/15 01:50:47;;;;;;;7.70;5.00;;;;;;;;;;6286827;28;20294;-68
2023/08/15 01:53:50;;;;;;;14.15;4.82;;;;;;;;;;6284660;28;20307;-69
2023/08/15 01:56:56;;;;;;;7.95;4.47;;;;;;;;;;6285382;28;20290;-69
2023/08/15 01:59:59;;;;;;;6.85;4.57;;;;;;;;;;6286022;28;20302;-69
2023/08/15 02:03:04;;;;;;;8.52;4.85;;;;;;;;;;6284852;28;20299;-69
2023/08/15 02:06:08;;;;;;;13.05;5.30;;;;;;;;;;6286555;28;20300;-69
2023/08/15 02:09:12;;;;;;;6.47;4.43;;;;;;;;;;6284617;28;20599;-68
2023/08/15 02:12:17;;;;;;;7.57;4.85;;;;;;;;;;6284778;28;20303;-69
2023/08/15 02:15:21;;;;;;;6.03;4.38;;;;;;;;;;6285816;28;20311;-69
2023/08/15 02:18:26;;;;;;;8.75;4.47;;;;;;;;;;6284413;28;20571;-69
2023/08/15 02:21:30;;;;;;;9.95;4.82;;;;;;;;;;6285748;28;20290;-70
2023/08/15 02:24:34;;;;;;;9.27;4.93;;;;;;;;;;6284375;28;20347;-67
2023/08/15 02:27:39;;;;;;;8.88;4.70;;;;;;;;;;6284367;28;20266;-70
2023/08/15 02:30:43;;;;;;;9.23;4.68;;;;;;;;;;6285558;28;20555;-68
2023/08/15 02:33:47;;;;;;;9.48;4.53;;;;;;;;;;6283401;28;20459;-68
2023/08/15 02:36:50;;;;;;;6.95;4.38;;;;;;;;;;6284327;28;22218;-68
2023/08/15 02:39:54;;;;;;;5.35;4.63;;;;;;;;;;6285086;28;20291;-70
2023/08/15 02:42:59;;;;;;;10.18;4.47;;;;;;;;;;6285057;28;20298;-68
2023/08/15 02:46:03;;;;;;;5.63;4.75;;;;;;;;;;6284298;28;20576;-69
2023/08/15 02:49:07;;;;;;;8.10;4.95;;;;;;;;;;6285060;28;20293;-69
2023/08/15 02:52:11;;;;;;;4.65;4.20;;;;;;;;;;6283874;28;20298;-69
2023/08/15 02:55:15;;;;;;;4.65;4.22;;;;;;;;;;6283535;28;20295;-69
2023/08/15 02:58:20;;;;;;;5.93;4.50;;;;;;;;;;6284646;28;20286;-69
2023/08/15 03:01:24;;;;;;;11.00;4.13;;;;;;;;;;6284540;28;20543;-69
2023/08/15 03:04:28;;;;;;;7.03;4.53;;;;;;;;;;6276837;28;20470;-68
2023/08/15 03:07:32;;;;;;;8.38;4.38;;;;;;;;;;6284140;28;20298;-69
2023/08/15 03:10:38;;;;;;;7.40;4.82;;;;;;;;;;6284154;28;20299;-68
2023/08/15 03:13:43;;;;;;;5.70;4.20;;;;;;;;;;6259215;28;20295;-68
2023/08/15 03:16:47;;;;;;;10.48;4.50;;;;;;;;;;6259297;28;20311;-68
2023/08/15 03:19:51;;;;;;;6.47;4.45;;;;;;;;;;6263659;28;20295;-69
2023/08/15 03:22:55;;;;;;;8.95;4.70;;;;;;;;;;6284646;28;20290;-68
2023/08/15 03:25:59;;;;;;;6.50;4.70;;;;;;;;;;6283964;28;20298;-72
2023/08/15 03:29:09;;;;;;;7.50;4.60;;;;;;;;;;6283233;28;20300;-68
2023/08/15 03:32:13;;;;;;;7.57;3.97;;;;;;;;;;6283498;28;20294;-69
2023/08/15 03:35:17;;;;;;;6.22;4.30;;;;;;;;;;6283538;28;20291;-68
2023/08/15 03:38:25;;;;;;;11.52;5.18;;;;;;;;;;6283142;28;20290;-69
2023/08/15 03:41:28;;;;;;;5.00;4.40;;;;;;;;;;6284130;28;20295;-69
2023/08/15 03:44:34;;;;;;;7.20;4.20;;;;;;;;;;6282098;28;20287;-69
2023/08/15 03:47:38;;;;;;;7.47;4.80;;;;;;;;;;6282756;28;20291;-69
2023/08/15 03:50:42;;;;;;;11.07;4.82;;;;;;;;;;6283986;28;20295;-69
2023/08/15 03:53:46;;;;;;;6.70;4.25;;;;;;;;;;6283769;28;20310;-68
2023/08/15 03:56:50;;;;;;;12.75;5.28;;;;;;;;;;6282211;28;20295;-68
2023/08/15 03:59:55;;;;;;;8.40;4.57;;;;;;;;;;6281846;28;20421;-68
2023/08/15 04:02:59;;;;;;;7.75;4.75;;;;;;;;;;6283037;28;20299;-69
2023/08/15 04:06:03;;;;;;;11.13;4.35;;;;;;;;;;6282458;28;20290;-70
2023/08/15 04:09:07;;;;;;;12.77;4.50;;;;;;;;;;6281808;28;20298;-69
2023/08/15 04:12:12;;;;;;;6.93;4.95;;;;;;;;;;6282308;28;20306;-67
2023/08/15 04:15:17;;;;;;;8.43;4.55;;;;;;;;;;6282376;28;20583;-69
2023/08/15 04:18:21;;;;;;;9.40;4.68;;;;;;;;;;6283631;28;20575;-69
2023/08/15 04:21:25;;;;;;;7.80;4.65;;;;;;;;;;6283573;28;20298;-69
2023/08/15 04:24:29;;;;;;;7.53;4.55;;;;;;;;;;6282060;28;20294;-69
2023/08/15 04:27:33;;;;;;;11.38;4.50;;;;;;;;;;6256942;28;20276;-69
2023/08/15 04:30:38;;;;;;;6.10;4.53;;;;;;;;;;6273881;28;20286;-69
2023/08/15 04:33:42;;;;;;;7.60;4.78;;;;;;;;;;6260600;28;20564;-71
2023/08/15 04:36:47;;;;;;;5.00;4.45;;;;;;;;;;6282595;28;20287;-68
2023/08/15 04:39:51;;;;;;;13.20;4.38;;;;;;;;;;6283059;28;20310;-68
2023/08/15 04:42:55;;;;;;;4.95;4.35;;;;;;;;;;6282738;28;20354;-69
2023/08/15 04:46:00;;;;;;;9.25;4.32;;;;;;;;;;6265346;28;20294;-69
2023/08/15 04:49:05;;;;;;;13.73;5.15;;;;;;;;;;6282209;28;20291;-68
2023/08/15 04:52:09;;;;;;;4.82;4.40;;;;;;;;;;6283393;28;20287;-69
2023/08/15 04:55:13;;;;;;;9.52;4.32;;;;;;;;;;6282197;28;20432;-67
2023/08/15 04:58:16;;;;;;;11.20;4.43;;;;;;;;;;6283145;28;20576;-68
2023/08/15 05:01:22;;;;;;;5.53;4.10;;;;;;;;;;6286380;28;20287;-68
2023/08/15 05:04:26;;;;;;;6.75;4.30;;;;;;;;;;6319655;28;20443;-68
2023/08/15 05:07:30;;;;;;;9.95;4.80;;;;;;;;;;6286823;28;20471;-68
2023/08/15 05:10:34;;;;;;;11.30;5.03;;;;;;;;;;6277160;28;20299;-69
2023/08/15 05:13:38;;;;;;;9.48;4.15;;;;;;;;;;6286698;28;20304;-69
2023/08/15 05:16:43;;;;;;;4.72;4.18;;;;;;;;;;6287573;28;20299;-68
2023/08/15 05:19:47;;;;;;;8.43;4.10;;;;;;;;;;6285667;28;20454;-68
2023/08/15 05:22:51;;;;;;;6.55;4.03;;;;;;;;;;6286470;28;20595;-69
2023/08/15 05:25:56;;;;;;;5.28;4.20;;;;;;;;;;6285162;28;20311;-71
2023/08/15 05:29:01;;;;;;;7.10;4.28;;;;;;;;;;6285644;28;20291;-69
2023/08/15 05:32:06;;;;;;;4.80;3.83;;;;;;;;;;6285666;28;20460;-69
2023/08/15 05:35:10;;;;;;;10.73;4.25;;;;;;;;;;6284915;28;20295;-69
2023/08/15 05:38:14;;;;;;;10.88;4.38;;;;;;;;;;6286029;28;20591;-68
2023/08/15 05:41:18;;;;;;;14.95;4.35;;;;;;;;;;6286574;28;20295;-68
2023/08/15 05:44:21;;;;;;;5.95;3.55;;;;;;;;;;6286313;28;20336;-68
2023/08/15 05:47:27;;;;;;;4.15;3.90;;;;;;;;;;6319211;28;20472;-69
2023/08/15 05:50:30;;;;;;;6.80;3.97;;;;;;;;;;6286183;28;20291;-69
2023/08/15 05:53:34;;;;;;;4.50;4.10;;;;;;;;;;6284781;28;20295;-69
2023/08/15 05:56:38;;;;;;;4.68;4.20;;;;;;;;;;6285886;28;20287;-69
2023/08/15 05:59:42;;;;;;;4.40;4.00;;;;;;;;;;6286450;28;20294;-69
2023/08/15 06:02:47;;;;;;;6.75;4.15;;;;;;;;;;6286385;28;20468;-68
2023/08/15 06:05:51;;;;;;;5.70;4.00;;;;;;;;;;6285906;28;20299;-68
2023/08/15 06:08:57;;;;;;;11.98;4.40;;;;;;;;;;6284596;28;20310;-69
2023/08/15 06:12:00;;;;;;;7.15;3.83;;;;;;;;;;6286532;28;20406;-68
2023/08/15 06:15:05;;;;;;;10.57;3.90;;;;;;;;;;6285594;28;20302;-68
2023/08/15 06:18:10;;;;;;;7.30;4.30;;;;;;;;;;6286099;28;20303;-68
2023/08/15 06:21:14;;;;;;;8.20;4.10;;;;;;;;;;6285900;28;20307;-70
2023/08/15 06:24:17;;;;;;;8.38;3.90;;;;;;;;;;6279205;28;20338;-68
2023/08/15 06:27:21;;;;;;;8.02;3.50;;;;;;;;;;6285118;28;20470;-67
2023/08/15 06:30:26;;;;;;;7.53;3.75;;;;;;;;;;6285677;28;20299;-69
2023/08/15 06:33:31;;;;;;;7.22;3.55;;;;;;;;;;6285464;28;20291;-70
2023/08/15 06:36:35;;;;;;;3.75;2.88;;;;;;;;;;6284625;28;20616;-69
2023/08/15 06:39:39;;;;;;;5.13;2.90;;;;;;;;;;6285252;28;20307;-69
2023/08/15 06:42:43;;;;;;;5.85;3.60;;;;;;;;;;6285089;28;20247;-69
2023/08/15 06:45:46;;;;;;;4.82;2.80;;;;;;;;;;6285157;28;20462;-69
2023/08/15 06:48:51;;;;;;;4.47;3.00;;;;;;;;;;6284602;28;20318;-69
2023/08/15 06:51:55;;;;;;;8.20;3.65;;;;;;;;;;6285354;28;20290;-70
2023/08/15 06:54:59;;;;;;;6.57;3.33;;;;;;;;;;6284769;28;20294;-69
2023/08/15 06:58:03;;;;;;;4.93;2.88;;;;;;;;;;6284918;28;20583;-69
2023/08/15 07:01:07;;;;;;;12.07;3.97;;;;;;;;;;6284727;28;20299;-69
2023/08/15 07:04:13;;;;;;;8.75;3.13;;;;;;;;;;6283198;28;20291;-69
2023/08/15 07:07:16;;;;;;;5.80;3.03;;;;;;;;;;6284267;28;20307;-69
2023/08/15 07:10:21;;;;;;;6.63;3.40;;;;;;;;;;6284379;28;20287;-67
2023/08/15 07:13:25;;;;;;;10.30;4.00;;;;;;;;;;6284871;28;20298;-68
2023/08/15 07:16:29;;;;;;;18.45;4.38;;;;;;;;;;6284617;28;20294;-68
2023/08/15 07:19:34;;;;;;;12.68;4.15;;;;;;;;;;6284706;28;20294;-68
2023/08/15 07:22:38;;;;;;;27.98;4.63;;;;;;;;;;6284080;28;20295;-68
2023/08/15 07:25:43;;;;;;;37.88;6.85;;;;;;;;;;6285026;28;20290;-68
2023/08/15 07:28:47;;;;;;;51.15;7.25;;;;;;;;;;6284212;28;20286;-68
2023/08/15 07:31:50;;;;;;;39.20;6.68;;;;;;;;;;6284805;28;20294;-68
2023/08/15 07:34:56;;;;;;;20.83;4.30;;;;;;;;;;6283100;28;20299;-68
2023/08/15 07:38:00;;;;;;;12.30;2.95;;;;;;;;;;6284025;28;20295;-68
2023/08/15 07:41:04;;;;;;;2.25;2.15;;;;;;;;;;6282349;28;20295;-72
2023/08/15 07:44:08;;;;;;;17.33;4.45;;;;;;;;;;6278143;28;20299;-73
2023/08/15 07:47:12;;;;;;;3.53;2.20;;;;;;;;;;6273136;28;20329;-69
2023/08/15 07:50:18;;;;;;;4.03;2.30;;;;;;;;;;6283289;28;20374;-70
2023/08/15 07:53:23;;;;;;;6.47;2.30;;;;;;;;;;6282437;28;20291;-69
2023/08/15 07:56:28;;;;;;;1.80;1.75;;;;;;;;;;6268291;28;20347;-68
2023/08/15 07:59:31;;;;;;;1.98;1.88;;;;;;;;;;6258437;28;20300;-68
2023/08/15 08:02:36;;;;;;;9.90;2.10;;;;;;;;;;6291261;28;20287;-72
2023/08/15 08:05:41;;;;;;;3.42;2.10;;;;;;;;;;6258888;28;20478;-70
2023/08/15 08:08:45;;;;;;;2.65;1.92;;;;;;;;;;6258627;28;20303;-72
2023/08/15 08:11:49;;;;;;;3.60;2.38;;;;;;;;;;6270878;28;20303;-70
2023/08/15 08:14:53;;;;;;;4.47;2.15;;;;;;;;;;6271690;28;20300;-71
2023/08/15 08:18:00;;;;;;;1.90;1.80;;;;;;;;;;6279662;28;20287;-68
2023/08/15 08:21:06;;;;;;;3.70;2.17;;;;;;;;;;6283457;28;20299;-68
2023/08/15 08:24:10;;;;;;;25.95;2.53;;;;;;;;;;6283661;28;20488;-69
2023/08/15 08:27:14;;;;;;;2.53;1.80;;;;;;;;;;6284385;28;20295;-68
2023/08/15 08:30:19;;;;;;;4.10;2.30;;;;;;;;;;6283779;28;20367;-69
2023/08/15 08:33:23;;;;;;;2.60;2.00;;;;;;;;;;6317245;28;20303;-71
2023/08/15 08:36:28;;;;;;;2.42;1.90;;;;;;;;;;6288459;28;20298;-72
2023/08/15 08:39:32;;;;;;;8.43;2.42;;;;;;;;;;6287063;28;20291;-70
2023/08/15 08:42:36;;;;;;;4.80;2.03;;;;;;;;;;6288741;28;20256;-69
2023/08/15 08:45:40;;;;;;;4.43;2.38;;;;;;;;;;6288070;28;20295;-70
2023/08/15 08:48:44;;;;;;;4.55;2.05;;;;;;;;;;6287549;28;20235;-71
2023/08/15 08:51:50;;;;;;;2.28;2.00;;;;;;;;;;6288954;28;20240;-70
2023/08/15 08:54:53;;;;;;;3.75;1.90;;;;;;;;;;6287701;28;20299;-71
2023/08/15 08:58:02;;;;;;;2.50;2.03;;;;;;;;;;6288101;28;20394;-71
2023/08/15 09:01:06;;;;;;;1.80;1.70;;;;;;;;;;6287623;28;20569;-71
2023/08/15 09:04:10;;;;;;;2.03;1.90;;;;;;;;;;6287229;28;20311;-70
2023/08/15 09:07:16;;;;;;;6.63;1.85;;;;;;;;;;6288275;28;20291;-68
2023/08/15 09:10:22;;;;;;;8.63;2.00;;;;;;;;;;6287788;28;20516;-70
2023/08/15 09:13:26;;;;;;;5.60;2.55;;;;;;;;;;6287694;28;20583;-68
2023/08/15 09:16:30;;;;;;;3.00;1.58;;;;;;;;;;6287536;28;20374;-69
2023/08/15 09:19:40;;;;;;;2.00;1.75;;;;;;;;;;6286121;28;20295;-68
2023/08/15 09:22:46;;;;;;;1.75;1.60;;;;;;;;;;6287899;28;20315;-70
2023/08/15 09:25:54;;;;;;;1.58;1.58;;;;;;;;;;6287176;28;20335;-69
2023/08/15 09:28:58;;;;;;;2.33;1.60;;;;;;;;;;6285863;28;20295;-71
2023/08/15 09:32:01;;;;;;;1.92;1.83;;;;;;;;;;6287405;28;20368;-70
2023/08/15 09:35:06;;;;;;;1.70;1.60;;;;;;;;;;6284665;28;20315;-71
2023/08/15 09:38:13;;;;;;;1.67;1.58;;;;;;;;;;6286926;28;20310;-72
2023/08/15 09:41:20;;;;;;;2.10;2.00;;;;;;;;;;6278024;28;20291;-69
2023/08/15 09:44:31;;;;;;;2.20;1.50;;;;;;;;;;6286362;28;20286;-68
2023/08/15 09:47:36;;;;;;;2.00;1.63;;;;;;;;;;6286878;28;20295;-71
2023/08/15 09:50:41;;;;;;;2.75;1.92;;;;;;;;;;6286464;28;20290;-71
2023/08/15 09:53:47;;;;;;;3.25;1.85;;;;;;;;;;6286352;28;20299;-70
2023/08/15 09:56:51;;;;;;;4.13;1.80;;;;;;;;;;6286705;28;20296;-70
2023/08/15 09:59:55;;;;;;;2.20;1.80;;;;;;;;;;6273421;28;20481;-72
2023/08/15 10:03:01;;;;;;;3.67;1.73;;;;;;;;;;6282468;28;20295;-70
2023/08/15 10:06:07;;;;;;;3.83;1.83;;;;;;;;;;6286232;28;20290;-69
2023/08/15 10:09:15;;;;;;;5.00;2.00;;;;;;;;;;6280513;28;20283;-69
2023/08/15 10:12:19;;;;;;;2.30;2.10;;;;;;;;;;6285010;28;20299;-68
2023/08/15 10:15:24;;;;;;;2.17;2.08;;;;;;;;;;6286731;28;20290;-69
2023/08/15 10:18:30;;;;;;;2.55;2.20;;;;;;;;;;6285702;28;20489;-68
2023/08/15 10:21:47;;;;;;;5.18;2.08;;;;;;;;;;6285109;28;20325;-68
2023/08/15 10:24:53;;;;;;;6.88;2.03;;;;;;;;;;6285585;28;20304;-69
2023/08/15 10:27:57;;;;;;;3.50;2.25;;;;;;;;;;6286060;28;20306;-71
2023/08/15 10:31:01;;;;;;;2.25;1.83;;;;;;;;;;6285096;28;20291;-69
2023/08/15 10:34:06;;;;;;;2.78;2.17;;;;;;;;;;6284450;28;20307;-70
2023/08/15 10:37:31;;;;;;;2.05;1.95;;;;;;;;;;6285854;28;20295;-70
2023/08/15 10:40:39;;;;;;;4.05;2.38;;;;;;;;;;6285217;28;20296;-69
2023/08/15 10:43:47;;;;;;;5.82;2.05;;;;;;;;;;6283641;28;20536;-69
2023/08/15 10:46:51;;;;;;;2.88;2.22;;;;;;;;;;6271616;28;20287;-69
2023/08/15 10:49:55;;;;;;;4.10;2.47;;;;;;;;;;6283612;28;20287;-70
2023/08/15 10:52:59;;;;;;;4.05;2.45;;;;;;;;;;6284441;28;20470;-68
2023/08/15 10:56:05;;;;;;;2.40;2.20;;;;;;;;;;6283920;28;20298;-70
2023/08/15 10:59:11;;;;;;;4.97;2.67;;;;;;;;;;6279096;28;20295;-68
2023/08/15 11:02:16;;;;;;;8.02;2.85;;;;;;;;;;6274468;28;20303;-70
2023/08/15 11:05:20;;;;;;;4.20;2.60;;;;;;;;;;6284319;28;20616;-68
2023/08/15 11:08:24;;;;;;;4.07;2.28;;;;;;;;;;6284922;28;20294;-69
2023/08/15 11:11:34;;;;;;;5.63;2.60;;;;;;;;;;6283599;28;20339;-69
2023/08/15 11:14:37;;;;;;;8.07;2.45;;;;;;;;;;6284336;28;20472;-69
2023/08/15 11:17:42;;;;;;;5.15;2.83;;;;;;;;;;6285271;28;20303;-70
2023/08/15 11:20:45;;;;;;;6.38;2.80;;;;;;;;;;6284412;28;20291;-70
2023/08/15 11:23:54;;;;;;;2.88;2.70;;;;;;;;;;6282993;28;20287;-70
2023/08/15 11:27:01;;;;;;;2.78;2.53;;;;;;;;;;6282686;28;20295;-68
2023/08/15 11:30:06;;;;;;;9.18;3.00;;;;;;;;;;6284164;28;20286;-69
2023/08/15 11:33:10;;;;;;;3.63;2.60;;;;;;;;;;6284554;28;20315;-71
2023/08/15 11:36:14;;;;;;;9.82;3.03;;;;;;;;;;6284074;28;20298;-69
2023/08/15 11:39:18;;;;;;;5.18;2.83;;;;;;;;;;6284429;28;20571;-70
2023/08/15 11:42:24;;;;;;;8.98;3.47;;;;;;;;;;6284132;28;20311;-71
2023/08/15 11:45:32;;;;;;;10.57;2.50;;;;;;;;;;6268197;28;20291;-70
2023/08/15 11:48:36;;;;;;;7.40;2.75;;;;;;;;;;6274594;28;20354;-70
2023/08/15 11:51:40;;;;;;;7.68;2.78;;;;;;;;;;6284934;28;20243;-71
2023/08/15 11:54:46;;;;;;;5.20;3.58;;;;;;;;;;6283014;28;20307;-68
2023/08/15 11:57:51;;;;;;;6.05;2.60;;;;;;;;;;6283410;28;20306;-69
2023/08/15 12:00:56;;;;;;;4.72;2.75;;;;;;;;;;6283019;28;20290;-70
2023/08/15 12:04:00;;;;;;;5.88;2.90;;;;;;;;;;6283347;28;20540;-71
2023/08/15 12:07:04;;;;;;;6.07;3.22;;;;;;;;;;6284923;28;20298;-70
2023/08/15 12:10:08;;;;;;;4.45;2.80;;;;;;;;;;6288759;28;20306;-69
2023/08/15 12:13:13;;;;;;;9.70;3.10;;;;;;;;;;6289219;28;20283;-71
2023/08/15 12:16:19;;;;;;;15.48;3.30;;;;;;;;;;6288734;28;20326;-69
2023/08/15 12:19:23;;;;;;;8.57;3.20;;;;;;;;;;6288588;28;20302;-68
2023/08/15 12:22:30;;;;;;;4.65;2.80;;;;;;;;;;6288772;28;20294;-68
2023/08/15 12:25:34;;;;;;;7.47;3.45;;;;;;;;;;6288584;28;20294;-69
2023/08/15 12:28:39;;;;;;;4.53;3.33;;;;;;;;;;6288408;28;20294;-68
2023/08/15 12:31:43;;;;;;;8.57;3.25;;;;;;;;;;6289115;28;20287;-72
2023/08/15 12:34:46;;;;;;;10.35;3.38;;;;;;;;;;6277400;28;20299;-69
2023/08/15 12:37:51;;;;;;;4.03;3.25;;;;;;;;;;6274839;28;20310;-72
2023/08/15 12:40:55;;;;;;;10.35;3.47;;;;;;;;;;6287871;28;20299;-71
2023/08/15 12:44:00;;;;;;;4.00;3.13;;;;;;;;;;6283935;28;20283;-77
2023/08/15 12:47:04;;;;;;;6.78;3.33;;;;;;;;;;6276621;28;20294;-70
2023/08/15 12:50:08;;;;;;;10.82;3.40;;;;;;;;;;6287807;28;20594;-70
2023/08/15 12:53:12;;;;;;;5.93;3.33;;;;;;;;;;6288654;28;20291;-70
2023/08/15 12:56:16;;;;;;;5.38;3.10;;;;;;;;;;6287793;28;20294;-72
2023/08/15 12:59:22;;;;;;;8.30;3.75;;;;;;;;;;6281202;28;20471;-71
2023/08/15 13:02:27;;;;;;;6.85;3.13;;;;;;;;;;6278972;28;20339;-70
2023/08/15 13:05:31;;;;;;;11.15;3.50;;;;;;;;;;6287554;28;20292;-69
2023/08/15 13:08:35;;;;;;;9.80;3.33;;;;;;;;;;6287874;28;20487;-69
2023/08/15 13:11:39;;;;;;;4.75;3.03;;;;;;;;;;6280462;28;20536;-70
2023/08/15 13:14:45;;;;;;;7.97;3.65;;;;;;;;;;6287438;28;20304;-70
2023/08/15 13:17:48;;;;;;;15.68;4.43;;;;;;;;;;6288305;28;20468;-71
2023/08/15 13:20:52;;;;;;;5.85;3.72;;;;;;;;;;6286746;28;20335;-69
2023/08/15 13:23:56;;;;;;;9.55;4.00;;;;;;;;;;6287415;28;20364;-73
2023/08/15 13:27:00;;;;;;;4.28;3.50;;;;;;;;;;6287840;28;20371;-72
2023/08/15 13:30:07;;;;;;;4.75;3.83;;;;;;;;;;6285983;28;20318;-72
2023/08/15 13:33:11;;;;;;;6.55;3.70;;;;;;;;;;6286496;28;20294;-71
2023/08/15 13:36:15;;;;;;;10.60;3.70;;;;;;;;;;6286872;28;20299;-73
2023/08/15 13:39:19;;;;;;;6.78;3.97;;;;;;;;;;6280326;28;20300;-71
2023/08/15 13:42:22;;;;;;;6.25;3.50;;;;;;;;;;6286601;28;20315;-72
2023/08/15 13:45:41;;;;;;;14.38;3.60;;;;;;;;;;6269685;28;20580;-72
2023/08/15 13:48:45;;;;;;;6.07;3.92;;;;;;;;;;6286764;28;20239;-72
2023/08/15 13:51:49;;;;;;;8.55;4.03;;;;;;;;;;6287218;28;20240;-73
2023/08/15 13:54:53;;;;;;;10.98;3.83;;;;;;;;;;6286510;28;20287;-72
2023/08/15 13:57:56;;;;;;;6.10;3.42;;;;;;;;;;6286927;28;20301;-71
2023/08/15 14:01:01;;;;;;;8.07;3.80;;;;;;;;;;6286098;28;20302;-72
2023/08/15 14:04:06;;;;;;;10.93;3.47;;;;;;;;;;6285202;28;20295;-72
2023/08/15 14:07:10;;;;;;;7.75;3.50;;;;;;;;;;6286384;28;20298;-71
2023/08/15 14:10:13;;;;;;;6.80;4.03;;;;;;;;;;6276526;28;20291;-73
2023/08/15 14:13:17;;;;;;;9.13;3.67;;;;;;;;;;6286383;28;20311;-71
2023/08/15 14:16:22;;;;;;;6.40;3.58;;;;;;;;;;6285849;28;20299;-71
2023/08/15 14:19:26;;;;;;;4.63;3.78;;;;;;;;;;6285747;28;20314;-69
2023/08/15 14:22:30;;;;;;;6.72;3.92;;;;;;;;;;6286227;28;20302;-69
2023/08/15 14:25:34;;;;;;;4.70;3.33;;;;;;;;;;6285890;28;20291;-69
2023/08/15 14:28:37;;;;;;;7.57;3.40;;;;;;;;;;6285999;28;20302;-69
2023/08/15 14:31:43;;;;;;;12.77;4.35;;;;;;;;;;6286456;28;20295;-69
2023/08/15 14:34:48;;;;;;;10.90;3.92;;;;;;;;;;6275724;28;20485;-68
2023/08/15 14:37:54;;;;;;;7.32;3.33;;;;;;;;;;6272642;28;20299;-67
2023/08/15 14:40:57;;;;;;;10.05;3.90;;;;;;;;;;6285512;28;20299;-69
2023/08/15 14:44:01;;;;;;;7.05;3.75;;;;;;;;;;6281381;28;20299;-70
2023/08/15 14:47:07;;;;;;;7.05;3.45;;;;;;;;;;6274090;28;20291;-67
2023/08/15 14:50:11;;;;;;;6.03;3.47;;;;;;;;;;6270482;28;20291;-68
2023/08/15 14:53:15;;;;;;;7.82;3.42;;;;;;;;;;6275571;28;20567;-70
2023/08/15 14:56:19;;;;;;;6.25;3.58;;;;;;;;;;6285395;28;20302;-69
2023/08/15 14:59:23;;;;;;;8.13;3.95;;;;;;;;;;6277919;28;20296;-68
2023/08/15 15:02:30;;;;;;;4.40;4.03;;;;;;;;;;6276342;28;20577;-68
2023/08/15 15:05:34;;;;;;;9.80;3.72;;;;;;;;;;6284254;28;20286;-69
2023/08/15 15:08:38;;;;;;;5.95;3.88;;;;;;;;;;6283963;28;20479;-69
2023/08/15 15:11:41;;;;;;;9.07;3.95;;;;;;;;;;6278035;28;20294;-69
2023/08/15 15:14:45;;;;;;;9.65;4.03;;;;;;;;;;6284746;28;20429;-71
2023/08/15 15:17:50;;;;;;;7.57;3.42;;;;;;;;;;6285434;28;20291;-70
2023/08/15 15:20:55;;;;;;;8.10;3.50;;;;;;;;;;6284533;28;20299;-69
2023/08/15 15:24:01;;;;;;;7.20;4.10;;;;;;;;;;6284618;28;20307;-72
2023/08/15 15:27:05;;;;;;;10.55;4.00;;;;;;;;;;6284871;28;20315;-70
2023/08/15 15:30:09;;;;;;;6.50;4.88;;;;;;;;;;6284224;28;20295;-70
2023/08/15 15:33:14;;;;;;;4.50;4.10;;;;;;;;;;6284761;28;20403;-69
2023/08/15 15:36:18;;;;;;;7.40;3.90;;;;;;;;;;6284270;28;20290;-71
2023/08/15 15:39:22;;;;;;;13.02;4.05;;;;;;;;;;6284327;28;20607;-68
2023/08/15 15:42:26;;;;;;;8.77;3.75;;;;;;;;;;6284255;28;20282;-69
2023/08/15 15:45:30;;;;;;;5.75;3.35;;;;;;;;;;6284313;28;20294;-70
2023/08/15 15:48:35;;;;;;;8.90;3.50;;;;;;;;;;6283349;28;20553;-71
2023/08/15 15:51:39;;;;;;;6.65;3.80;;;;;;;;;;6284706;28;20239;-69
2023/08/15 15:54:42;;;;;;;6.35;3.90;;;;;;;;;;6283972;28;20540;-69
2023/08/15 15:57:46;;;;;;;8.45;3.97;;;;;;;;;;6285377;28;20239;-71
2023/08/15 16:00:50;;;;;;;4.20;3.50;;;;;;;;;;6284303;28;20302;-70
2023/08/15 16:03:55;;;;;;;9.88;3.83;;;;;;;;;;6284172;28;20564;-70
2023/08/15 16:06:59;;;;;;;12.23;3.60;;;;;;;;;;6284321;28;20287;-71
2023/08/15 16:10:03;;;;;;;9.98;4.43;;;;;;;;;;6284113;28;20291;-71
2023/08/15 16:13:07;;;;;;;4.88;3.80;;;;;;;;;;6284301;28;20386;-70
2023/08/15 16:16:11;;;;;;;7.93;3.90;;;;;;;;;;6283633;28;20310;-69
2023/08/15 16:19:16;;;;;;;9.27;3.92;;;;;;;;;;6277404;28;20300;-71
2023/08/15 16:22:21;;;;;;;9.07;3.95;;;;;;;;;;6266137;28;20500;-71
2023/08/15 16:25:25;;;;;;;9.07;3.85;;;;;;;;;;6283340;28;20290;-71
2023/08/15 16:28:29;;;;;;;8.52;4.40;;;;;;;;;;6284152;28;20295;-71
2023/08/15 16:31:33;;;;;;;8.10;3.95;;;;;;;;;;6283501;28;20286;-72
2023/08/15 16:34:38;;;;;;;8.45;3.85;;;;;;;;;;6275082;28;20303;-71
2023/08/15 16:37:44;;;;;;;10.98;4.68;;;;;;;;;;6268441;28;20286;-70
2023/08/15 16:40:49;;;;;;;7.50;4.18;;;;;;;;;;6275766;28;20581;-71
2023/08/15 16:43:54;;;;;;;9.52;4.82;;;;;;;;;;6284483;28;20295;-71
2023/08/15 16:46:58;;;;;;;10.77;4.55;;;;;;;;;;6284384;28;20305;-72
2023/08/15 16:50:05;;;;;;;88.63;21.17;;;;;;;;;;6284063;28;20295;-72
2023/08/15 16:53:09;;;;;;;16.90;7.15;;;;;;;;;;6284096;28;20476;-72
2023/08/15 16:56:14;;;;;;;25.23;9.13;;;;;;;;;;6287953;28;20306;-71
2023/08/15 16:59:18;;;;;;;12.18;5.82;;;;;;;;;;6281884;28;20296;-74
2023/08/15 17:02:22;;;;;;;11.20;5.88;;;;;;;;;;6279116;28;20295;-71
2023/08/15 17:05:27;;;;;;;13.27;5.82;;;;;;;;;;6288174;28;20294;-72
2023/08/15 17:08:31;;;;;;;12.40;5.88;;;;;;;;;;6288589;28;20317;-73
2023/08/15 17:11:35;;;;;;;13.98;5.60;;;;;;;;;;6287808;28;20358;-73
2023/08/15 17:14:39;;;;;;;10.48;5.50;;;;;;;;;;6288035;28;20292;-74
2023/08/15 17:17:43;;;;;;;11.85;5.38;;;;;;;;;;6288545;28;20314;-72
2023/08/15 17:20:48;;;;;;;9.45;5.35;;;;;;;;;;6287873;28;20300;-72
2023/08/15 17:23:52;;;;;;;9.75;5.28;;;;;;;;;;6288951;28;20307;-73
2023/08/15 17:26:56;;;;;;;8.45;5.10;;;;;;;;;;6288598;28;20291;-74
2023/08/15 17:30:00;;;;;;;10.27;5.13;;;;;;;;;;6287764;28;20294;-71
2023/08/15 17:33:04;;;;;;;11.55;4.72;;;;;;;;;;6287269;28;20291;-68
2023/08/15 17:36:09;;;;;;;6.65;4.95;;;;;;;;;;6266125;28;20299;-70
2023/08/15 17:39:13;;;;;;;10.60;5.35;;;;;;;;;;6279330;28;20631;-70
2023/08/15 17:42:17;;;;;;;6.57;5.93;;;;;;;;;;6285674;28;20308;-72
2023/08/15 17:45:21;;;;;;;8.60;5.53;;;;;;;;;;6287003;28;20290;-71
2023/08/15 17:48:25;;;;;;;8.15;5.55;;;;;;;;;;6287574;28;20595;-70
2023/08/15 17:51:30;;;;;;;14.77;6.60;;;;;;;;;;6287037;28;20298;-71
2023/08/15 17:54:34;;;;;;;8.32;6.38;;;;;;;;;;6277986;28;20291;-72
2023/08/15 17:57:38;;;;;;;9.05;5.30;;;;;;;;;;6287061;28;20239;-70
2023/08/15 18:00:42;;;;;;;10.63;6.10;;;;;;;;;;6270283;28;20291;-70
2023/08/15 18:03:46;;;;;;;11.52;5.95;;;;;;;;;;6283823;28;20451;-70
2023/08/15 18:06:52;;;;;;;7.07;5.40;;;;;;;;;;6265338;28;22221;-69
2023/08/15 18:09:56;;;;;;;7.28;5.15;;;;;;;;;;6279050;28;20288;-69
2023/08/15 18:13:00;;;;;;;11.55;5.88;;;;;;;;;;6287576;28;20299;-70
2023/08/15 18:16:04;;;;;;;6.88;5.32;;;;;;;;;;6287008;28;20381;-72
2023/08/15 18:19:08;;;;;;;8.02;5.80;;;;;;;;;;6286777;28;20318;-74
2023/08/15 18:22:13;;;;;;;15.70;6.40;;;;;;;;;;6286106;28;20287;-71
2023/08/15 18:25:17;;;;;;;9.20;6.00;;;;;;;;;;6286243;28;20637;-72